Time;durP1;ratioP1;P1;durP2;ratioP2;P2;SDS_P1;SDS_P2;PMS_P1;PMS_P2;Temp;Humidity;BMP_temperature;BMP_pressure;BME280_temperature;BME280_humidity;BME280_pressure;Samples;Min_cycle;Max_cycle;Signal;HPM_P1;HPM_P2
2023/01/08 00:01:58;;;;;;;3.15;2.85;;;;;;;8.30;100.00;100185.63;4926552;29;20047;-83
2023/01/08 00:04:30;;;;;;;4.53;3.30;;;;;;;8.31;100.00;100178.63;4957554;28;20043;-83
2023/01/08 00:07:09;;;;;;;3.50;2.80;;;;;;;8.31;100.00;100182.13;4934911;29;20026;-83
2023/01/08 00:09:40;;;;;;;4.32;3.15;;;;;;;8.32;100.00;100176.00;4959201;29;20049;-83
2023/01/08 00:12:18;;;;;;;3.47;3.17;;;;;;;8.33;100.00;100174.25;4942544;29;20027;-83
2023/01/08 00:14:52;;;;;;;2.83;2.60;;;;;;;8.34;100.00;100176.88;4938695;29;20044;-83
2023/01/08 00:17:22;;;;;;;3.10;2.90;;;;;;;8.35;100.00;100173.38;4974712;28;20038;-83
2023/01/08 00:20:05;;;;;;;3.10;2.80;;;;;;;8.36;100.00;100164.63;4947251;29;20047;-84
2023/01/08 00:22:33;;;;;;;3.25;2.90;;;;;;;8.38;100.00;100162.88;4933631;29;20031;-85
2023/01/08 00:25:03;;;;;;;4.43;3.13;;;;;;;8.41;100.00;100156.75;4938855;29;20057;-85
2023/01/08 00:27:33;;;;;;;3.60;2.80;;;;;;;8.42;100.00;100163.78;4911711;29;20051;-82
2023/01/08 00:30:01;;;;;;;4.50;2.85;;;;;;;8.42;100.00;100150.66;5002614;23;20040;-83
2023/01/08 00:32:37;;;;;;;4.75;2.80;;;;;;;8.43;100.00;100154.16;4960047;28;20054;-82
2023/01/08 00:35:18;;;;;;;4.47;3.33;;;;;;;8.43;100.00;100154.16;4959275;28;20023;-83
2023/01/08 00:37:50;;;;;;;3.60;2.83;;;;;;;8.42;100.00;100161.16;4972876;23;20027;-84
2023/01/08 00:40:47;;;;;;;5.25;3.00;;;;;;;8.44;100.00;100164.66;2171223;23;20237;31
2023/01/08 00:43:39;;;;;;;3.20;2.95;;;;;;;8.45;100.00;100152.41;4913843;29;20040;-85
2023/01/08 00:46:20;;;;;;;3.30;2.40;;;;;;;8.47;100.00;100146.31;4955588;23;20062;-84
2023/01/08 00:49:00;;;;;;;3.17;2.50;;;;;;;8.49;100.00;100155.06;4942733;29;20028;-84
2023/01/08 01:10:29;;;;;;;4.75;2.85;;;;;;;8.50;100.00;100146.28;4917326;29;20056;-84
2023/01/08 01:16:35;;;;;;;3.40;2.70;;;;;;;8.51;100.00;100157.69;4938744;29;20031;-84
2023/01/08 01:34:37;;;;;;;2.45;2.25;;;;;;;8.37;100.00;100134.88;1834273;23;20307;-82
2023/01/08 01:37:29;;;;;;;2.80;2.50;;;;;;;8.37;100.00;100141.88;4926037;29;20067;-83
2023/01/08 01:40:04;;;;;;;2.88;2.60;;;;;;;8.35;100.00;100131.34;4977534;23;20044;-84
2023/01/08 01:42:39;;;;;;;3.10;2.50;;;;;;;8.33;100.00;100122.59;4909953;29;20643;-84
2023/01/08 01:45:35;;;;;;;2.13;1.92;;;;;;;8.32;100.00;100117.38;4924738;23;20041;-84
2023/01/08 01:48:37;;;;;;;3.63;2.28;;;;;;;8.31;100.00;100118.25;4942230;23;20062;-85
2023/01/08 01:51:33;;;;;;;2.90;2.20;;;;;;;8.31;100.00;100134.84;5021015;23;20052;-84
2023/01/08 01:54:12;;;;;;;3.22;2.38;;;;;;;8.31;100.00;100134.84;4966850;23;20048;-83
2023/01/08 01:56:45;;;;;;;2.30;2.10;;;;;;;8.32;100.00;100133.13;4926783;29;20032;-84
2023/01/08 02:08:03;;;;;;;3.90;2.95;;;;;;;8.37;100.00;100134.88;5028717;23;20044;-85
2023/01/08 02:15:07;;;;;;;3.42;2.70;;;;;;;8.37;100.00;100132.25;4919967;29;20043;-82
2023/01/08 02:18:05;;;;;;;2.80;2.55;;;;;;;8.38;100.00;100141.00;4922188;29;20028;-84
2023/01/08 02:26:54;;;;;;;7.28;2.80;;;;;;;8.33;100.00;100121.75;1365021;23;20318;-84
2023/01/08 02:32:32;;;;;;;3.08;2.28;;;;;;;8.30;100.00;100132.22;4888844;29;20045;-83
2023/01/08 02:38:13;;;;;;;2.53;2.10;;;;;;;8.26;100.00;100130.47;4945041;23;20630;-85
2023/01/08 02:41:07;;;;;;;4.40;2.05;;;;;;;8.23;100.00;100120.00;5116438;23;20051;-84
2023/01/08 02:54:26;;;;;;;9.63;2.30;;;;;;;8.06;100.00;100135.72;1762630;23;21758;-85
2023/01/08 02:57:10;;;;;;;7.05;1.98;;;;;;;8.03;100.00;100125.19;4925518;29;20090;-85
2023/01/08 02:59:46;;;;;;;5.03;1.45;;;;;;;7.98;100.00;100135.69;4964870;23;20126;-83
2023/01/08 03:05:46;;;;;;;7.82;1.75;;;;;;;7.93;100.00;100147.91;1680978;23;20259;-83
2023/01/08 03:08:37;;;;;;;6.15;1.60;;;;;;;7.90;100.00;100140.03;4931689;23;20042;-82
2023/01/08 03:11:14;;;;;;;9.38;2.03;;;;;;;7.88;100.00;100136.53;4959148;28;20042;-84
2023/01/08 03:14:06;;;;;;;7.03;1.85;;;;;;;7.87;100.00;100137.41;4934126;29;20023;-83
2023/01/08 03:17:13;;;;;;;6.07;1.50;;;;;;;7.82;100.00;100145.25;4954110;28;20020;-85
2023/01/08 03:22:42;;;;;;;6.53;1.58;;;;;;;7.76;100.00;100140.88;5127230;23;20055;-83
2023/01/08 03:25:36;;;;;;;11.38;2.47;;;;;;;7.75;100.00;100135.59;4952349;23;20048;-83
2023/01/08 03:50:39;;;;;;;8.48;2.42;;;;;;;7.54;100.00;100149.53;4938968;29;20051;-82
2023/01/08 03:53:23;;;;;;;5.97;1.80;;;;;;;7.54;100.00;100136.41;4894167;29;20048;-85
2023/01/08 03:55:52;;;;;;;10.50;2.00;;;;;;;7.53;100.00;100126.81;4924805;29;20028;-83
2023/01/08 03:58:44;;;;;;;5.65;2.05;;;;;;;7.52;100.00;100127.66;4925430;29;20040;-82
2023/01/08 04:01:16;;;;;;;11.30;1.85;;;;;;;7.50;100.00;100126.78;4927280;23;20033;-82
2023/01/08 04:07:15;;;;;;;9.55;1.92;;;;;;;7.47;100.00;100127.66;749286;23;20453;-84
2023/01/08 04:09:45;;;;;;;11.30;2.00;;;;;;;7.47;100.00;100124.16;4870085;24;20056;-83
2023/01/08 04:18:31;;;;;;;10.45;3.22;;;;;;;7.44;100.00;100105.78;4993466;23;20052;-84
2023/01/08 04:21:07;;;;;;;5.78;1.90;;;;;;;7.42;100.00;100111.03;4986783;23;20064;-83
2023/01/08 04:23:47;;;;;;;7.15;2.20;;;;;;;7.39;100.00;100106.66;4969545;23;20061;-86
2023/01/08 04:29:31;;;;;;;5.57;1.70;;;;;;;7.32;100.00;100112.75;4978556;23;20039;-84
2023/01/08 04:32:04;;;;;;;9.13;2.13;;;;;;;7.30;100.00;100103.13;4941661;23;20046;-84
2023/01/08 04:35:06;;;;;;;8.55;1.80;;;;;;;7.26;100.00;100102.22;4872387;29;20065;-84
2023/01/08 04:38:05;;;;;;;9.75;2.10;;;;;;;7.22;100.00;100109.19;4885192;29;20759;-84
2023/01/08 04:43:55;;;;;;;11.20;3.60;;;;;;;7.19;100.00;100106.56;4957867;29;20062;-83
2023/01/08 04:52:55;;;;;;;11.90;2.67;;;;;;;7.16;100.00;100100.41;977427;23;20325;-82
2023/01/08 04:55:36;;;;;;;7.18;3.05;;;;;;;7.15;100.00;100093.44;4916500;29;20505;-82
2023/01/08 04:58:16;;;;;;;4.78;2.38;;;;;;;7.16;100.00;100096.03;4888314;29;20033;-85
2023/01/08 05:00:59;;;;;;;3.63;2.50;;;;;;;7.17;100.00;100089.09;4888087;29;20045;-84
2023/01/08 05:03:32;;;;;;;5.55;2.85;;;;;;;7.19;100.00;100079.47;4889809;29;20051;-84
2023/01/08 05:06:04;;;;;;;10.82;3.38;;;;;;;7.22;100.00;100084.72;4876854;29;20037;-84
2023/01/08 05:08:36;;;;;;;4.93;2.80;;;;;;;7.25;100.00;100076.88;4893264;29;20032;-84
2023/01/08 05:11:13;;;;;;;8.30;3.35;;;;;;;7.28;100.00;100074.28;4967995;23;20047;-84
2023/01/08 05:13:53;;;;;;;4.90;2.60;;;;;;;7.30;100.00;100067.31;4904963;29;20041;-84
2023/01/08 05:16:23;;;;;;;5.68;3.38;;;;;;;7.33;100.00;100066.44;4945772;23;20062;-84
2023/01/08 05:18:54;;;;;;;6.63;3.10;;;;;;;7.36;100.00;100071.69;5019018;23;20054;-85
2023/01/08 05:21:23;;;;;;;8.18;2.80;;;;;;;7.39;100.00;100069.97;4943751;29;20035;-84
2023/01/08 05:24:18;;;;;;;3.13;2.45;;;;;;;7.42;100.00;100077.81;4948926;28;20032;-83
2023/01/08 05:26:50;;;;;;;3.67;2.85;;;;;;;7.46;100.00;100068.22;5094756;23;20043;-83
2023/01/08 05:29:29;;;;;;;2.38;2.17;;;;;;;7.48;100.00;100063.00;4955717;28;20567;-83
2023/01/08 05:32:03;;;;;;;5.45;2.78;;;;;;;7.52;100.00;100062.13;4943026;29;20050;-84
2023/01/08 05:34:33;;;;;;;5.43;2.53;;;;;;;7.53;100.00;100058.66;4918220;28;20061;-84
2023/01/08 05:37:02;;;;;;;3.97;2.65;;;;;;;7.53;100.00;100049.03;4949444;29;20040;-83
2023/01/08 05:39:45;;;;;;;3.47;2.45;;;;;;;7.54;100.00;100053.41;4929894;29;20016;-84
2023/01/08 05:42:39;;;;;;;3.63;2.30;;;;;;;7.55;100.00;100047.28;4948893;29;20062;-83
2023/01/08 05:45:09;;;;;;;3.20;2.07;;;;;;;7.55;100.00;100042.03;4928916;29;20035;-84
2023/01/08 05:47:39;;;;;;;6.22;2.13;;;;;;;7.57;100.00;100055.16;4911508;29;20043;-84
2023/01/08 05:50:19;;;;;;;4.90;2.22;;;;;;;7.56;100.00;100050.78;4935638;29;20036;-84
2023/01/08 05:52:48;;;;;;;2.45;2.25;;;;;;;7.56;100.00;100045.53;4929763;29;20039;-84
2023/01/08 05:55:22;;;;;;;4.93;2.22;;;;;;;7.56;100.00;100028.06;4926647;29;20061;-84
2023/01/08 05:57:57;;;;;;;4.13;1.85;;;;;;;7.55;100.00;100031.53;4888624;29;20041;-84
2023/01/08 06:00:31;;;;;;;3.50;1.80;;;;;;;7.54;100.00;100050.78;4978414;24;20051;-84
2023/01/08 06:03:08;;;;;;;4.13;2.13;;;;;;;7.54;100.00;100053.41;4930674;29;20106;-84
2023/01/08 06:05:42;;;;;;;5.07;2.20;;;;;;;7.54;100.00;100049.88;4941784;28;20043;-84
2023/01/08 06:08:17;;;;;;;4.03;2.10;;;;;;;7.53;100.00;100054.28;4940236;29;20028;-84
2023/01/08 06:27:17;;;;;;;4.50;1.77;;;;;;;7.53;100.00;100053.41;4937306;29;20039;-84
2023/01/08 06:29:47;;;;;;;6.43;2.47;;;;;;;7.53;100.00;100054.28;4926458;29;20048;-84
2023/01/08 06:42:23;;;;;;;5.28;1.80;;;;;;;7.46;100.00;100059.50;4957853;23;20049;-84
2023/01/08 06:44:52;;;;;;;6.22;2.03;;;;;;;7.43;100.00;100060.38;4893191;29;20029;-83
2023/01/08 07:02:40;;;;;;;4.50;2.38;;;;;;;7.51;100.00;100063.88;986375;23;20461;-83
2023/01/08 07:05:23;;;;;;;8.63;2.20;;;;;;;7.52;100.00;100065.59;4942796;29;20062;-84
2023/01/08 07:07:54;;;;;;;4.97;2.05;;;;;;;7.53;100.00;100061.25;4962120;29;20055;-85
2023/01/08 07:10:25;;;;;;;6.90;2.63;;;;;;;7.53;100.00;100061.25;4959291;28;20049;-85
2023/01/08 07:13:15;;;;;;;4.97;2.57;;;;;;;7.54;100.00;100056.03;4952915;28;20049;-85
2023/01/08 07:15:45;;;;;;;2.92;2.28;;;;;;;7.54;100.00;100060.38;4952896;29;20046;-84
2023/01/08 07:18:31;;;;;;;6.30;2.40;;;;;;;7.53;100.00;100062.13;4974904;23;20051;-82
2023/01/08 07:21:07;;;;;;;4.63;2.00;;;;;;;7.50;100.00;100054.25;4921244;29;20039;-85
2023/01/08 07:23:41;;;;;;;4.72;2.13;;;;;;;7.48;100.00;100047.25;4953254;28;20045;-84
2023/01/08 07:26:14;;;;;;;6.93;2.97;;;;;;;7.47;100.00;100056.00;4928305;29;20038;-84
2023/01/08 07:28:54;;;;;;;3.78;2.42;;;;;;;7.45;100.00;100060.34;4926759;29;20048;-84
2023/01/08 07:31:29;;;;;;;3.92;2.47;;;;;;;7.42;100.00;100048.97;4952601;23;20041;-85
2023/01/08 07:37:12;;;;;;;3.67;2.50;;;;;;;7.37;100.00;100044.59;4975061;28;20038;-84
2023/01/08 07:48:27;;;;;;;4.10;2.47;;;;;;;7.26;100.00;100052.44;1368796;23;20396;-84
2023/01/08 07:51:20;;;;;;;5.07;2.58;;;;;;;7.24;100.00;100051.56;5139370;23;20057;-84
2023/01/08 07:53:55;;;;;;;8.32;2.85;;;;;;;7.20;100.00;100058.53;4984440;23;20051;-85
2023/01/08 07:56:39;;;;;;;5.72;2.35;;;;;;;7.16;100.00;100059.34;4958301;29;20097;-84
2023/01/08 07:59:07;;;;;;;6.35;2.65;;;;;;;7.13;100.00;100062.00;4922380;29;20031;-83
2023/01/08 08:01:34;;;;;;;9.23;2.63;;;;;;;7.09;100.00;100056.72;4947582;29;20035;-83
2023/01/08 08:04:05;;;;;;;3.92;2.33;;;;;;;7.07;100.00;100067.22;4942802;29;20050;-83
2023/01/08 08:06:33;;;;;;;3.25;2.28;;;;;;;7.03;100.00;100063.69;4943036;29;20054;-82
2023/01/08 08:09:22;;;;;;;5.10;2.00;;;;;;;7.03;100.00;100062.78;4937428;28;20047;-84
2023/01/08 08:12:13;;;;;;;3.63;2.00;;;;;;;7.01;100.00;100056.66;4943308;29;20039;-85
2023/01/08 08:14:41;;;;;;;6.90;2.55;;;;;;;7.03;100.00;100058.44;4937575;29;20051;-84
2023/01/08 08:17:17;;;;;;;8.23;1.98;;;;;;;7.05;100.00;100068.03;4945783;29;20039;-84
2023/01/08 08:19:47;;;;;;;4.95;1.83;;;;;;;7.05;100.00;100061.09;4941084;23;20059;-83
2023/01/08 08:22:23;;;;;;;6.88;2.38;;;;;;;7.07;100.00;100064.59;4946046;29;20057;-83
2023/01/08 08:24:51;;;;;;;6.18;2.35;;;;;;;7.09;100.00;100056.72;4944181;29;20049;-83
2023/01/08 08:27:23;;;;;;;4.82;2.20;;;;;;;7.11;100.00;100053.25;4944868;29;20051;-83
2023/01/08 08:29:52;;;;;;;7.68;2.03;;;;;;;7.10;100.00;100048.88;4952780;28;20047;-83
2023/01/08 08:32:20;;;;;;;6.80;2.25;;;;;;;7.11;100.00;100049.75;4948929;23;20052;-82
2023/01/08 08:34:51;;;;;;;5.65;3.22;;;;;;;7.09;100.00;100049.75;4938266;29;20048;-83
2023/01/08 08:37:18;;;;;;;4.65;2.65;;;;;;;7.09;100.00;100044.50;4926411;29;20040;-83
2023/01/08 08:39:47;;;;;;;6.05;3.15;;;;;;;7.09;100.00;100047.13;4918358;29;20047;-83
2023/01/08 08:42:17;;;;;;;7.80;3.00;;;;;;;7.08;100.00;100050.59;4929700;29;20046;-82
2023/01/08 08:44:47;;;;;;;7.70;3.20;;;;;;;7.07;100.00;100047.97;4923763;29;20066;-82
2023/01/08 08:47:18;;;;;;;4.47;3.38;;;;;;;7.06;100.00;100046.22;4913966;29;20046;-82
2023/01/08 08:49:46;;;;;;;6.40;3.28;;;;;;;7.05;100.00;100041.84;4939331;29;20046;-83
2023/01/08 08:52:22;;;;;;;6.53;3.72;;;;;;;7.03;100.00;100036.59;4921244;29;20063;-82
2023/01/08 08:54:49;;;;;;;9.80;4.60;;;;;;;7.01;100.00;100035.72;4926445;29;20044;-82
2023/01/08 08:57:26;;;;;;;8.23;3.83;;;;;;;7.00;100.00;100042.72;4951010;28;20046;-83
2023/01/08 08:59:55;;;;;;;6.03;4.13;;;;;;;6.99;100.00;100038.34;4918847;29;20063;-83
2023/01/08 09:02:24;;;;;;;6.88;3.25;;;;;;;7.00;100.00;100036.59;4928846;29;20031;-82
2023/01/08 09:04:55;;;;;;;8.85;3.63;;;;;;;7.00;100.00;100032.22;4941014;29;20055;-83
2023/01/08 09:07:24;;;;;;;7.90;3.97;;;;;;;7.00;100.00;100027.00;4935720;29;20031;-83
2023/01/08 09:10:00;;;;;;;8.20;4.18;;;;;;;7.01;100.00;100026.13;4913305;29;20027;-84
2023/01/08 09:12:27;;;;;;;8.45;3.00;;;;;;;7.02;100.00;100019.16;4967005;23;20051;-83
2023/01/08 09:14:57;;;;;;;12.00;3.72;;;;;;;7.03;100.00;100029.63;4913017;29;20112;-83
2023/01/08 09:17:24;;;;;;;6.03;3.47;;;;;;;7.05;100.00;100034.00;4907447;29;20032;-84
2023/01/08 09:19:52;;;;;;;9.63;3.10;;;;;;;7.06;100.00;100020.91;4928581;29;20031;-83
2023/01/08 09:22:19;;;;;;;7.28;3.17;;;;;;;7.09;100.00;100025.28;4919303;29;20052;-83
2023/01/08 09:24:48;;;;;;;8.15;3.25;;;;;;;7.11;100.00;100027.03;4928986;29;20036;-84
2023/01/08 09:27:17;;;;;;;7.13;2.63;;;;;;;7.15;100.00;100030.56;4923007;29;20044;-82
2023/01/08 09:29:44;;;;;;;10.00;2.90;;;;;;;7.18;100.00;100030.56;4924835;29;20037;-83
2023/01/08 09:32:12;;;;;;;9.93;3.05;;;;;;;7.22;100.00;100027.06;4889777;29;20040;-83
2023/01/08 09:34:42;;;;;;;7.25;2.40;;;;;;;7.23;100.00;100029.69;4928015;29;20081;-83
2023/01/08 09:37:15;;;;;;;8.00;2.92;;;;;;;7.27;100.00;100038.44;4915035;29;20024;-83
2023/01/08 09:39:44;;;;;;;6.70;2.75;;;;;;;7.30;100.00;100037.59;4929479;29;20040;-83
2023/01/08 09:42:28;;;;;;;5.47;2.40;;;;;;;7.33;100.00;100035.84;4941433;29;20042;-83
2023/01/08 09:44:59;;;;;;;7.07;2.60;;;;;;;7.36;100.00;100033.25;4927900;29;20036;-83
2023/01/08 09:47:35;;;;;;;5.70;2.40;;;;;;;7.38;100.00;100028.88;4933155;29;20032;-82
2023/01/08 09:50:12;;;;;;;5.40;2.47;;;;;;;7.42;100.00;100030.63;4929899;29;20031;-82
2023/01/08 09:52:44;;;;;;;8.35;2.40;;;;;;;7.47;100.00;100021.94;4934747;29;20039;-81
2023/01/08 09:55:15;;;;;;;3.83;2.15;;;;;;;7.50;100.00;100025.41;4917492;29;20058;-81
2023/01/08 09:57:46;;;;;;;10.15;2.50;;;;;;;7.54;100.00;100028.91;4926083;29;20052;-82
2023/01/08 10:00:18;;;;;;;4.15;2.45;;;;;;;7.56;100.00;100035.03;4904027;29;20058;-81
2023/01/08 10:02:53;;;;;;;4.63;2.50;;;;;;;7.60;100.00;100031.56;4921721;29;20054;-81
2023/01/08 10:05:21;;;;;;;8.23;2.45;;;;;;;7.63;100.00;100023.69;4907059;29;20040;-81
2023/01/08 10:07:54;;;;;;;2.75;1.85;;;;;;;7.65;100.00;100024.56;4902088;29;20060;-81
2023/01/08 10:10:29;;;;;;;8.98;2.95;;;;;;;7.69;100.00;100028.06;4913081;29;20066;-81
2023/01/08 10:12:58;;;;;;;4.40;2.47;;;;;;;7.71;100.00;100026.31;4907089;29;20044;-80
2023/01/08 10:15:26;;;;;;;7.63;2.42;;;;;;;7.73;100.00;100025.47;4907045;29;20058;-81
2023/01/08 10:18:06;;;;;;;5.90;2.17;;;;;;;7.75;100.00;100028.97;4879445;29;20035;-80
2023/01/08 10:20:34;;;;;;;5.70;2.17;;;;;;;7.77;100.00;100036.84;4886953;29;20048;-80
2023/01/08 10:23:18;;;;;;;7.32;1.95;;;;;;;7.79;100.00;100032.47;4889987;29;20494;-80
2023/01/08 10:25:59;;;;;;;4.70;1.80;;;;;;;7.81;100.00;100015.00;4898844;29;20044;-81
2023/01/08 10:28:34;;;;;;;7.50;1.95;;;;;;;7.84;100.00;100016.75;4904292;29;20067;-79
2023/01/08 10:31:09;;;;;;;5.72;2.15;;;;;;;7.88;100.00;100008.00;4911828;29;20067;-81
2023/01/08 10:33:41;;;;;;;13.32;2.38;;;;;;;7.91;100.00;99995.75;4887756;29;20056;-79
2023/01/08 10:36:13;;;;;;;6.45;1.98;;;;;;;7.95;100.00;99988.75;4881968;29;20052;-80
2023/01/08 10:39:03;;;;;;;6.18;1.83;;;;;;;7.98;100.00;99994.03;4901043;29;20048;-79
2023/01/08 10:41:38;;;;;;;7.68;1.60;;;;;;;7.99;100.00;99980.88;4926171;29;20044;-81
2023/01/08 10:44:15;;;;;;;8.57;2.50;;;;;;;8.02;100.00;99985.28;4901573;29;20052;-81
2023/01/08 10:46:49;;;;;;;5.88;1.73;;;;;;;8.07;100.00;99994.03;4898870;29;20398;-80
2023/01/08 10:49:43;;;;;;;5.95;1.73;;;;;;;8.07;100.00;99991.41;4893179;29;20048;-79
2023/01/08 10:52:35;;;;;;;6.88;1.85;;;;;;;8.05;100.00;99990.50;4896092;29;20094;-80
2023/01/08 10:55:27;;;;;;;11.05;2.50;;;;;;;8.03;100.00;99981.75;4903985;29;20052;-80
2023/01/08 10:58:02;;;;;;;9.45;2.13;;;;;;;8.02;100.00;99980.03;4914673;29;20054;-79
2023/01/08 11:00:33;;;;;;;8.90;2.05;;;;;;;8.06;100.00;99979.16;4891019;29;20063;-80
2023/01/08 11:03:04;;;;;;;9.02;2.83;;;;;;;8.14;100.00;99981.75;4890620;29;20058;-80
2023/01/08 11:05:37;;;;;;;9.48;2.13;;;;;;;8.19;100.00;99974.75;4922983;29;20466;-80
2023/01/08 11:08:12;;;;;;;8.70;2.17;;;;;;;8.23;100.00;99975.63;4889292;29;20052;-80
2023/01/08 11:10:40;;;;;;;9.27;2.55;;;;;;;8.27;100.00;99974.75;4893175;29;20547;-80
2023/01/08 11:13:16;;;;;;;7.80;2.15;;;;;;;8.26;100.00;99967.75;4897280;29;20057;-80
2023/01/08 11:15:44;;;;;;;9.63;2.42;;;;;;;8.27;100.00;99966.88;4911122;29;20064;-79
2023/01/08 11:18:23;;;;;;;;;;;;;;;8.27;100.00;99974.75;4914299;29;20048;-80
2023/01/08 11:20:53;;;;;;;8.63;2.13;;;;;;;8.31;100.00;99971.25;4925595;29;19975;-80
2023/01/08 11:23:26;;;;;;;10.88;2.42;;;;;;;8.31;100.00;99966.84;4893249;29;20052;-79
2023/01/08 11:26:13;;;;;;;9.82;2.70;;;;;;;8.34;100.00;99971.25;4902781;29;20079;-79
2023/01/08 11:29:03;;;;;;;7.25;1.83;;;;;;;8.35;100.00;99968.59;4910134;29;20039;-80
2023/01/08 11:31:49;;;;;;;7.63;2.28;;;;;;;8.38;100.00;99968.59;4907259;29;20058;-80
2023/01/08 11:34:27;;;;;;;8.60;2.30;;;;;;;8.40;100.00;99958.97;4904394;29;20047;-79
2023/01/08 11:37:11;;;;;;;9.50;2.30;;;;;;;8.44;100.00;99961.63;4893154;29;20063;-79
2023/01/08 11:39:39;;;;;;;4.45;1.55;;;;;;;8.49;100.00;99960.75;4922660;29;20051;-79
2023/01/08 11:42:16;;;;;;;9.35;2.50;;;;;;;8.53;100.00;99957.22;4891012;29;20057;-79
2023/01/08 11:45:11;;;;;;;8.93;2.38;;;;;;;8.55;100.00;99951.97;4922594;29;20035;-79
2023/01/08 11:48:05;;;;;;;12.75;3.78;;;;;;;8.56;100.00;99949.34;4908599;29;20044;-79
2023/01/08 11:51:04;;;;;;;8.85;2.65;;;;;;;8.60;100.00;99926.59;4917980;29;20048;-81
2023/01/08 11:53:46;;;;;;;5.65;1.98;;;;;;;8.64;100.00;99924.78;4930922;29;20035;-80
2023/01/08 11:56:51;;;;;;;12.40;2.30;;;;;;;8.70;100.00;99932.66;4914680;29;20056;-80
2023/01/08 12:00:11;;;;;;;6.50;1.70;;;;;;;8.74;100.00;99931.78;4920302;29;20036;-81
2023/01/08 12:03:25;;;;;;;10.02;1.95;;;;;;;8.71;100.00;99922.13;4904154;29;20052;-81
2023/01/08 12:06:15;;;;;;;7.55;2.17;;;;;;;8.70;100.00;99920.41;4896651;29;20055;-81
2023/01/08 12:09:09;;;;;;;10.40;2.15;;;;;;;8.69;100.00;99913.38;4856744;29;20036;-78
2023/01/08 12:12:02;;;;;;;7.55;1.85;;;;;;;8.68;100.00;99913.44;4899838;29;20048;-78
2023/01/08 12:14:45;;;;;;;9.13;2.60;;;;;;;8.70;100.00;99901.16;4907883;29;20056;-78
2023/01/08 12:17:42;;;;;;;8.63;1.95;;;;;;;8.71;100.00;99916.03;4891848;29;20040;-78
2023/01/08 12:20:35;;;;;;;11.02;2.47;;;;;;;8.73;100.00;99901.13;4883556;29;20063;-78
2023/01/08 12:23:03;;;;;;;10.70;2.47;;;;;;;8.71;100.00;99901.13;4838980;29;20583;-78
2023/01/08 12:25:49;;;;;;;7.70;2.45;;;;;;;8.69;100.00;99899.41;4886354;29;20049;-78
2023/01/08 12:28:27;;;;;;;19.33;4.13;;;;;;;8.68;100.00;99898.53;4867652;29;20055;-77
2023/01/08 12:31:19;;;;;;;11.63;3.13;;;;;;;8.66;100.00;99889.78;4902208;29;20055;-77
2023/01/08 12:34:04;;;;;;;12.07;2.10;;;;;;;8.62;100.00;99890.69;4904049;29;20079;-79
2023/01/08 12:37:12;;;;;;;11.25;2.67;;;;;;;8.61;100.00;99891.56;4899398;29;20413;-77
2023/01/08 12:39:51;;;;;;;13.38;2.75;;;;;;;8.59;100.00;99888.06;4846947;29;20064;-77
2023/01/08 12:42:23;;;;;;;9.70;2.60;;;;;;;8.63;100.00;99891.56;4898089;29;20044;-78
2023/01/08 12:44:54;;;;;;;11.45;2.90;;;;;;;8.67;100.00;99882.78;4892420;29;20072;-77
2023/01/08 12:47:27;;;;;;;9.68;2.25;;;;;;;8.68;100.00;99881.91;4868584;29;20044;-78
2023/01/08 12:50:02;;;;;;;13.57;2.53;;;;;;;8.65;100.00;99879.28;4887870;29;20048;-78
2023/01/08 12:52:40;;;;;;;10.70;2.58;;;;;;;8.65;100.00;99866.16;4876271;29;20059;-77
2023/01/08 12:55:43;;;;;;;9.10;2.55;;;;;;;8.64;100.00;99870.53;4858137;29;20056;-77
2023/01/08 12:58:39;;;;;;;10.93;2.45;;;;;;;8.68;100.00;99860.91;4885514;29;20509;-77
2023/01/08 13:01:24;;;;;;;10.40;2.75;;;;;;;8.66;100.00;99862.63;4874580;29;20072;-77
2023/01/08 13:03:53;;;;;;;27.08;7.03;;;;;;;8.63;100.00;99867.91;4885676;29;20052;-77
2023/01/08 13:06:21;;;;;;;20.25;3.33;;;;;;;8.57;100.00;99858.31;4860255;29;20049;-77
2023/01/08 13:08:55;;;;;;;9.07;2.33;;;;;;;8.55;100.00;99858.31;4854379;29;20063;-77
2023/01/08 13:11:28;;;;;;;11.13;3.05;;;;;;;8.54;100.00;99853.06;4892314;29;20044;-77
2023/01/08 13:14:05;;;;;;;9.95;2.72;;;;;;;8.49;100.00;99850.47;4894624;29;20067;-77
2023/01/08 13:16:43;;;;;;;7.07;2.33;;;;;;;8.46;100.00;99853.09;4907951;29;20056;-77
2023/01/08 13:19:38;;;;;;;10.32;2.47;;;;;;;8.43;100.00;99854.84;4900596;29;20054;-77
2023/01/08 13:22:23;;;;;;;15.18;2.92;;;;;;;8.42;100.00;99848.75;4901590;29;20111;-76
2023/01/08 13:24:50;;;;;;;6.63;2.40;;;;;;;8.42;100.00;99848.75;4844520;29;20055;-77
2023/01/08 13:27:18;;;;;;;8.35;2.10;;;;;;;8.42;100.00;99837.38;4927715;29;20505;-77
2023/01/08 13:29:47;;;;;;;7.82;2.30;;;;;;;8.39;100.00;99831.22;4921077;29;20047;-77
2023/01/08 13:32:26;;;;;;;10.50;2.17;;;;;;;8.37;100.00;99832.09;4918901;29;20052;-76
2023/01/08 13:35:11;;;;;;;13.15;2.60;;;;;;;8.34;100.00;99824.25;4919387;29;20056;-76
2023/01/08 13:37:39;;;;;;;14.23;2.67;;;;;;;8.29;100.00;99832.13;4924666;29;20070;-77
2023/01/08 13:40:35;;;;;;;8.50;2.20;;;;;;;8.25;100.00;99813.78;4891809;29;22263;-77
2023/01/08 13:43:10;;;;;;;6.88;1.98;;;;;;;8.22;100.00;99806.78;4927246;29;20554;-77
2023/01/08 13:45:38;;;;;;;8.50;2.67;;;;;;;8.22;100.00;99811.16;4905702;29;20063;-77
2023/01/08 13:48:05;;;;;;;7.47;2.13;;;;;;;8.22;100.00;99800.66;4875576;29;20052;-76
2023/01/08 13:50:35;;;;;;;9.98;2.63;;;;;;;8.17;100.00;99796.31;4893424;29;20122;-77
2023/01/08 13:53:04;;;;;;;13.40;2.55;;;;;;;8.16;100.00;99804.19;4922919;29;20055;-77
2023/01/08 13:55:36;;;;;;;6.32;1.52;;;;;;;8.13;100.00;99794.56;4901394;29;20048;-77
2023/01/08 13:58:12;;;;;;;10.25;2.40;;;;;;;8.11;100.00;99793.72;4876034;29;20047;-77
2023/01/08 14:00:39;;;;;;;5.40;2.05;;;;;;;8.09;100.00;99789.34;4924295;29;20055;-77
2023/01/08 14:03:30;;;;;;;6.38;2.25;;;;;;;8.08;100.00;99787.59;4903000;29;20637;-76
2023/01/08 14:06:21;;;;;;;11.40;2.53;;;;;;;8.04;100.00;99784.13;4886966;29;20063;-77
2023/01/08 14:08:50;;;;;;;13.80;3.05;;;;;;;8.02;100.00;99783.25;4879602;29;20060;-77
2023/01/08 14:11:19;;;;;;;14.02;2.78;;;;;;;7.99;100.00;99778.88;4883947;29;20052;-77
2023/01/08 14:13:47;;;;;;;6.47;1.98;;;;;;;8.00;100.00;99783.25;4861253;29;20071;-83
2023/01/08 14:16:16;;;;;;;9.50;2.33;;;;;;;8.00;100.00;99778.00;4895715;29;20052;-82
2023/01/08 14:18:44;;;;;;;9.48;2.97;;;;;;;8.00;100.00;99777.13;4887550;29;20060;-77
2023/01/08 14:21:13;;;;;;;7.03;2.08;;;;;;;7.98;100.00;99778.91;4884411;29;20060;-78
2023/01/08 14:23:45;;;;;;;6.07;2.22;;;;;;;7.98;100.00;99778.91;4888021;29;20055;-78
2023/01/08 14:26:35;;;;;;;11.02;2.30;;;;;;;7.98;100.00;99774.50;4909035;29;20062;-77
2023/01/08 14:29:11;;;;;;;8.57;3.22;;;;;;;8.01;100.00;99776.25;4845355;29;20798;-81
2023/01/08 14:31:44;;;;;;;9.35;2.30;;;;;;;8.03;100.00;99777.09;4891158;29;20052;-77
2023/01/08 14:34:13;;;;;;;11.82;2.40;;;;;;;8.04;100.00;99773.63;4878107;29;20071;-78
2023/01/08 14:36:41;;;;;;;7.60;2.30;;;;;;;8.05;100.00;99779.72;4877996;29;20056;-77
2023/01/08 14:39:21;;;;;;;4.85;1.83;;;;;;;8.06;100.00;99776.25;4902353;29;20052;-77
2023/01/08 14:44:38;;;;;;;13.43;3.78;;;;;;;8.11;100.00;99784.94;4852825;29;20063;-77
2023/01/08 14:47:17;;;;;;;17.33;2.72;;;;;;;8.11;100.00;99783.22;4889682;29;20067;-79
2023/01/08 14:49:51;;;;;;;10.52;2.67;;;;;;;8.12;100.00;99779.69;4881402;29;20056;-78
2023/01/08 14:52:20;;;;;;;14.02;2.17;;;;;;;8.14;100.00;99784.94;4901845;29;20056;-78
2023/01/08 14:54:51;;;;;;;3.83;1.92;;;;;;;8.14;100.00;99769.19;4879902;29;20076;-77
2023/01/08 14:57:19;;;;;;;10.23;2.33;;;;;;;8.16;100.00;99773.56;4908760;29;20048;-77
2023/01/08 14:59:56;;;;;;;14.65;3.17;;;;;;;8.15;100.00;99777.06;4874100;29;20048;-77
2023/01/08 15:02:31;;;;;;;10.43;2.55;;;;;;;8.14;100.00;99769.19;4883299;29;20402;-76
2023/01/08 15:05:19;;;;;;;5.82;2.38;;;;;;;8.10;100.00;99763.09;4890191;29;20465;-76
2023/01/08 15:07:58;;;;;;;8.98;2.88;;;;;;;8.08;100.00;99759.59;4896902;29;20055;-77
2023/01/08 15:10:38;;;;;;;6.32;1.90;;;;;;;8.02;100.00;99757.00;4887067;29;20040;-79
2023/01/08 15:13:10;;;;;;;12.05;2.08;;;;;;;7.95;100.00;99756.16;4887648;29;20051;-79
2023/01/08 15:15:55;;;;;;;8.05;2.00;;;;;;;7.90;100.00;99759.66;4879970;29;20056;-77